createdAt,value
2022-11-19T00:03:18.067Z,94460.44
2022-11-19T00:06:18.984Z,94451.25
2022-11-19T00:09:39.412Z,94454.66
2022-11-19T00:12:49.178Z,94469.22
2022-11-19T00:16:09.143Z,94459.25
2022-11-19T00:19:15.889Z,94465.38
2022-11-19T00:22:19.651Z,94470.28
2022-11-19T00:25:24.398Z,94470.72
2022-11-19T00:28:32.181Z,94477.91
2022-11-19T00:31:35.777Z,94471.81
2022-11-19T00:35:32.451Z,94481.34
2022-11-19T00:39:18.294Z,94473.38
2022-11-19T00:42:32.450Z,94476.06
2022-11-19T00:46:10.642Z,94487.81
2022-11-19T00:49:31.296Z,94476.34
2022-11-19T00:53:04.567Z,94489.78
2022-11-19T00:59:34.513Z,94491.25
2022-11-19T01:02:45.199Z,94492.84
2022-11-19T01:05:51.881Z,94485.91
2022-11-19T01:08:58.212Z,94499.72
2022-11-19T01:12:07.949Z,94487.47
2022-11-19T01:18:48.331Z,94500.56
2022-11-19T01:22:02.206Z,94503.97
2022-11-19T01:25:08.127Z,94511.63
2022-11-19T01:28:10.142Z,94505.88
2022-11-19T01:31:47.399Z,94513.16
2022-11-19T01:34:57.940Z,94515.13
2022-11-19T01:38:07.476Z,94515.09
2022-11-19T01:41:14.491Z,94531.88
2022-11-19T01:44:56.323Z,94526.59
2022-11-19T01:48:03.694Z,94517.38
2022-11-19T01:51:15.604Z,94521.22
2022-11-19T01:54:25.474Z,94512.41
2022-11-19T01:57:32.044Z,94517.03
2022-11-19T02:00:34.532Z,94511.59
2022-11-19T02:03:41.014Z,94510.44
2022-11-19T02:06:47.498Z,94504.28
2022-11-19T02:09:53.865Z,94508.53
2022-11-19T02:13:13.324Z,94507.38
2022-11-19T02:16:28.114Z,94509.31
2022-11-19T02:21:01.327Z,94520.78
2022-11-19T02:23:52.291Z,94518.91
2022-11-19T02:27:38.619Z,94520.81
2022-11-19T02:30:46.299Z,94523.47
2022-11-19T02:33:57.882Z,94525.44
2022-11-19T02:37:06.465Z,94526.53
2022-11-19T02:40:14.768Z,94527.38
2022-11-19T02:43:30.370Z,94531.97
2022-11-19T02:46:39.404Z,94531.97
2022-11-19T02:49:49.218Z,94531.13
2022-11-19T02:52:56.465Z,94543.38
2022-11-19T02:56:13.770Z,94554.00
2022-11-19T02:59:21.369Z,94546.31
2022-11-19T03:02:36.050Z,94546.25
2022-11-19T03:06:30.084Z,94542.81
2022-11-19T03:09:20.759Z,94555.41
2022-11-19T03:12:48.362Z,94553.41
2022-11-19T03:15:56.011Z,94540.41
2022-11-19T03:19:21.505Z,94542.38
2022-11-19T03:23:01.045Z,94550.41
2022-11-19T03:26:33.914Z,94541.63
2022-11-19T03:30:12.550Z,94543.22
2022-11-19T03:33:25.064Z,94550.88
2022-11-19T03:36:34.578Z,94556.94
2022-11-19T03:40:01.364Z,94551.22
2022-11-19T03:43:31.899Z,94551.28
2022-11-19T03:46:54.568Z,94561.13
2022-11-19T03:50:56.728Z,94561.56
2022-11-19T03:53:54.011Z,94570.00
2022-11-19T03:57:20.185Z,94566.56
2022-11-19T04:00:22.328Z,94567.75
2022-11-19T04:03:30.504Z,94570.81
2022-11-19T04:06:34.049Z,94561.31
2022-11-19T04:09:38.427Z,94571.63
2022-11-19T04:12:54.820Z,94565.19
2022-11-19T04:15:56.735Z,94572.81
2022-11-19T04:18:58.720Z,94575.16
2022-11-19T04:22:12.345Z,94573.63
2022-11-19T04:25:18.279Z,94584.69
2022-11-19T04:28:24.090Z,94581.97
2022-11-19T04:32:16.976Z,94590.34
2022-11-19T04:35:12.676Z,94587.34
2022-11-19T04:38:14.632Z,94587.69
2022-11-19T04:41:17.973Z,94590.78
2022-11-19T04:44:43.529Z,94597.25
2022-11-19T04:47:45.510Z,94597.56
2022-11-19T04:50:53.387Z,94603.78
2022-11-19T04:53:58.093Z,94601.47
2022-11-19T04:57:08.963Z,94610.63
2022-11-19T05:00:17.099Z,94604.13
2022-11-19T05:03:26.708Z,94596.44
2022-11-19T05:06:34.028Z,94596.72
2022-11-19T05:09:42.097Z,94600.25
2022-11-19T05:12:59.854Z,94605.63
2022-11-19T05:16:11.868Z,94596.41
2022-11-19T05:19:40.483Z,94602.19
2022-11-19T05:22:49.245Z,94597.53
2022-11-19T05:25:53.257Z,94598.25
2022-11-19T05:30:07.168Z,94605.22
2022-11-19T05:32:49.737Z,94600.59
2022-11-19T05:36:01.651Z,94604.41
2022-11-19T05:39:08.237Z,94614.03
2022-11-19T05:42:18.010Z,94610.59
2022-11-19T05:45:27.896Z,94610.94
2022-11-19T05:48:38.168Z,94622.03
2022-11-19T05:52:02.288Z,94612.91
2022-11-19T05:55:05.001Z,94614.44
2022-11-19T05:58:08.906Z,94623.66
2022-11-19T06:01:36.016Z,94618.97
2022-11-19T06:04:38.201Z,94617.91
2022-11-19T06:07:40.377Z,94630.53
2022-11-19T06:10:55.593Z,94623.97
2022-11-19T06:14:08.507Z,94633.69
2022-11-19T06:17:16.183Z,94641.19
2022-11-19T06:20:18.176Z,94632.84
2022-11-19T06:23:23.904Z,94645.47
2022-11-19T06:26:48.864Z,94642.78
2022-11-19T06:30:06.408Z,94642.44
2022-11-19T06:33:12.344Z,94646.16
2022-11-19T06:36:32.033Z,94646.22
2022-11-19T06:39:39.217Z,94653.13
2022-11-19T06:43:13.756Z,94655.59
2022-11-19T06:46:09.905Z,94656.66
2022-11-19T06:49:19.867Z,94653.63
2022-11-19T06:52:22.462Z,94659.38
2022-11-19T06:55:24.408Z,94655.84
2022-11-19T06:58:33.147Z,94658.19
2022-11-19T07:01:40.834Z,94668.88
2022-11-19T07:04:44.273Z,94667.84
2022-11-19T07:07:50.403Z,94669.81
2022-11-19T07:10:52.355Z,94677.03
2022-11-19T07:13:55.097Z,94674.38
2022-11-19T07:16:57.086Z,94678.25
2022-11-19T07:20:00.797Z,94685.94
2022-11-19T07:23:03.936Z,94676.75
2022-11-19T07:26:07.374Z,94685.97
2022-11-19T07:29:12.648Z,94684.84
2022-11-19T07:32:14.617Z,94688.22
2022-11-19T07:35:18.220Z,94689.69
2022-11-19T07:38:20.209Z,94700.06
2022-11-19T07:41:22.226Z,94696.25
2022-11-19T07:44:24.192Z,94695.06
2022-11-19T07:47:26.160Z,94696.59
2022-11-19T07:50:29.522Z,94696.66
2022-11-19T07:53:31.493Z,94696.28
2022-11-19T07:56:33.499Z,94687.91
2022-11-19T07:59:35.472Z,94694.03
2022-11-19T08:02:37.413Z,94700.56
2022-11-19T08:05:41.323Z,94696.41
2022-11-19T08:08:44.008Z,94702.22
2022-11-19T08:11:46.001Z,94707.06
2022-11-19T08:14:47.967Z,94701.25
2022-11-19T08:17:49.862Z,94711.19
2022-11-19T08:20:53.196Z,94702.25
2022-11-19T08:23:55.351Z,94707.19
2022-11-19T08:26:57.381Z,94710.19
2022-11-19T08:29:59.376Z,94709.00
2022-11-19T08:33:01.385Z,94715.09
2022-11-19T08:36:05.397Z,94717.59
2022-11-19T08:39:07.948Z,94716.47
2022-11-19T08:42:10.107Z,94719.72
2022-11-19T08:45:15.589Z,94736.00
2022-11-19T08:48:20.119Z,94733.63
2022-11-19T08:51:23.522Z,94741.16
2022-11-19T08:54:25.612Z,94746.16
2022-11-19T08:57:27.498Z,94744.56
2022-11-19T09:00:30.666Z,94750.78
2022-11-19T09:03:32.591Z,94749.25
2022-11-19T09:06:36.089Z,94755.06
2022-11-19T09:09:43.712Z,94759.47
2022-11-19T09:12:49.940Z,94769.91
2022-11-19T09:15:54.755Z,94769.16
2022-11-19T09:18:56.742Z,94775.66
2022-11-19T09:22:02.088Z,94783.03
2022-11-19T09:25:04.756Z,94788.06
2022-11-19T09:28:12.394Z,94788.38
2022-11-19T09:31:28.884Z,94788.06
2022-11-19T09:34:31.005Z,94798.94
2022-11-19T09:37:34.362Z,94802.69
2022-11-19T09:40:37.695Z,94801.47
2022-11-19T09:43:53.015Z,94807.78
2022-11-19T09:47:04.446Z,94806.38
2022-11-19T09:50:15.180Z,94802.06
2022-11-19T09:53:24.105Z,94803.19
2022-11-19T09:56:33.436Z,94797.47
2022-11-19T09:59:41.308Z,94809.25
2022-11-19T10:02:43.385Z,94804.06
2022-11-19T10:05:58.639Z,94799.13
2022-11-19T10:09:41.220Z,94794.59
2022-11-19T10:13:05.637Z,94795.88
2022-11-19T10:16:33.810Z,94800.41
2022-11-19T10:19:55.981Z,94802.25
2022-11-19T10:23:35.135Z,94803.31
2022-11-19T10:26:49.179Z,94798.84
2022-11-19T10:30:09.057Z,94800.91
2022-11-19T10:33:37.899Z,94797.22
2022-11-19T10:40:18.098Z,94795.19
2022-11-19T10:46:56.113Z,94794.69
2022-11-19T10:50:09.861Z,94787.97
2022-11-19T10:53:22.681Z,94786.13
2022-11-19T10:56:50.605Z,94787.66
2022-11-19T11:00:07.710Z,94785.66
2022-11-19T11:03:40.941Z,94781.53
2022-11-19T11:06:55.554Z,94772.50
2022-11-19T11:10:01.695Z,94773.31
2022-11-19T11:13:23.417Z,94774.13
2022-11-19T11:16:43.869Z,94763.63
2022-11-19T11:19:55.316Z,94765.66
2022-11-19T11:23:05.175Z,94756.19
2022-11-19T11:26:10.063Z,94758.50
2022-11-19T11:29:26.159Z,94752.13
2022-11-19T11:32:31.060Z,94747.44
2022-11-19T11:35:35.505Z,94749.81
2022-11-19T11:38:43.713Z,94736.47
2022-11-19T11:42:06.673Z,94743.34
2022-11-19T11:45:22.738Z,94738.41
2022-11-19T11:48:30.623Z,94744.19
2022-11-19T11:51:35.405Z,94746.94
2022-11-19T11:54:38.428Z,94738.91
2022-11-19T11:57:51.720Z,94741.59
2022-11-19T12:00:55.139Z,94737.63
2022-11-19T12:04:00.087Z,94726.44
2022-11-19T12:07:12.088Z,94732.84
2022-11-19T12:10:33.474Z,94729.63
2022-11-19T12:13:52.321Z,94730.31
2022-11-19T12:17:07.722Z,94732.19
2022-11-19T12:20:37.675Z,94745.44
2022-11-19T12:24:07.964Z,94738.63
2022-11-19T12:27:19.848Z,94742.75
2022-11-19T12:30:24.398Z,94743.09
2022-11-19T12:33:42.167Z,94734.03
2022-11-19T12:36:55.296Z,94734.06
2022-11-19T12:40:05.569Z,94723.03
2022-11-19T12:43:24.641Z,94724.66
2022-11-19T12:46:43.394Z,94735.59
2022-11-19T12:49:58.206Z,94730.59
2022-11-19T12:53:11.947Z,94733.00
2022-11-19T12:56:28.835Z,94718.81
2022-11-19T12:59:45.821Z,94723.81
2022-11-19T13:03:01.035Z,94724.63
2022-11-19T13:06:07.761Z,94723.41
2022-11-19T13:09:20.519Z,94726.63
2022-11-19T13:12:30.664Z,94738.94
2022-11-19T13:15:38.256Z,94740.44
2022-11-19T13:18:44.054Z,94740.03
2022-11-19T13:21:52.926Z,94741.22
2022-11-19T13:24:59.672Z,94743.06
2022-11-19T13:28:03.963Z,94740.44
2022-11-19T13:31:14.666Z,94741.88
2022-11-19T13:34:21.350Z,94750.94
2022-11-19T13:37:39.958Z,94745.22
2022-11-19T13:40:47.126Z,94745.34
2022-11-19T13:43:49.457Z,94743.09
2022-11-19T13:46:57.340Z,94756.56
2022-11-19T13:50:03.154Z,94751.13
2022-11-19T13:53:12.193Z,94751.81
2022-11-19T13:56:17.767Z,94757.63
2022-11-19T13:59:31.212Z,94747.94
2022-11-19T14:03:04.155Z,94756.91
2022-11-19T14:06:26.862Z,94761.53
2022-11-19T14:09:39.527Z,94762.56
2022-11-19T14:13:02.471Z,94774.31
2022-11-19T14:16:19.880Z,94777.28
2022-11-19T14:19:22.360Z,94776.38
2022-11-19T14:22:31.995Z,94768.84
2022-11-19T14:25:42.088Z,94743.28
2022-11-19T14:28:49.585Z,94753.81
2022-11-19T14:32:19.190Z,94752.44
2022-11-19T14:35:33.579Z,94740.88
2022-11-19T14:38:42.018Z,94750.44
2022-11-19T14:42:33.474Z,94745.78
2022-11-19T14:45:22.574Z,94749.91
2022-11-19T14:48:24.837Z,94759.03
2022-11-19T14:51:31.543Z,94758.63
2022-11-19T14:55:00.340Z,94757.28
2022-11-19T14:58:24.556Z,94769.66
2022-11-19T15:01:28.601Z,94761.75
2022-11-19T15:05:18.501Z,94777.56
2022-11-19T15:08:47.783Z,94779.13
2022-11-19T15:12:49.744Z,94782.16
2022-11-19T15:15:56.036Z,94786.94
2022-11-19T15:19:36.298Z,94792.28
2022-11-19T15:23:27.459Z,94801.41
2022-11-19T15:26:51.201Z,94795.22
2022-11-19T15:30:08.519Z,94790.59
2022-11-19T15:34:09.249Z,94787.94
2022-11-19T15:37:16.836Z,94785.13
2022-11-19T15:44:37.387Z,94781.25
2022-11-19T15:47:59.324Z,94779.53
2022-11-19T15:51:35.109Z,94778.59
2022-11-19T15:58:46.319Z,94785.38
2022-11-19T16:05:35.930Z,94786.66
2022-11-19T16:08:42.108Z,94783.41
2022-11-19T16:11:46.223Z,94787.28
2022-11-19T16:14:56.134Z,94787.69
2022-11-19T16:17:59.321Z,94799.66
2022-11-19T16:21:03.974Z,94808.78
2022-11-19T16:24:10.655Z,94808.16
2022-11-19T16:27:19.857Z,94812.00
2022-11-19T16:30:25.130Z,94804.75
2022-11-19T16:33:41.674Z,94811.66
2022-11-19T16:36:59.161Z,94811.31
2022-11-19T16:40:18.424Z,94818.09
2022-11-19T16:43:28.436Z,94826.69
2022-11-19T16:46:52.748Z,94819.75
2022-11-19T16:50:10.537Z,94822.16
2022-11-19T16:53:36.676Z,94833.34
2022-11-19T16:56:49.733Z,94825.44
2022-11-19T17:00:11.830Z,94820.81
2022-11-19T17:03:31.677Z,94813.13
2022-11-19T17:06:34.310Z,94820.09
2022-11-19T17:09:40.305Z,94823.31
2022-11-19T17:12:51.160Z,94832.88
2022-11-19T17:15:53.432Z,94837.84
2022-11-19T17:18:57.229Z,94840.53
2022-11-19T17:22:01.341Z,94838.69
2022-11-19T17:25:04.575Z,94838.28
2022-11-19T17:28:06.947Z,94851.00
2022-11-19T17:31:16.359Z,94858.44
2022-11-19T18:12:16.021Z,94854.38
2022-11-19T18:19:39.915Z,94856.28
2022-11-19T18:20:26.312Z,94851.22
2022-11-19T18:23:34.982Z,94852.19
2022-11-19T18:27:30.834Z,94861.75
2022-11-19T18:34:35.010Z,94844.22
2022-11-19T18:38:02.125Z,94840.31
2022-11-19T18:41:37.534Z,94833.00
2022-11-19T18:45:40.199Z,94838.50
2022-11-19T18:49:02.058Z,94830.06
2022-11-19T18:52:41.123Z,94834.00
2022-11-19T18:56:05.403Z,94842.91
2022-11-19T19:03:29.980Z,94835.06
2022-11-19T19:06:51.498Z,94834.69
2022-11-19T19:10:03.908Z,94837.72
2022-11-19T19:13:10.749Z,94836.25
2022-11-19T19:16:16.182Z,94824.44
2022-11-19T19:19:31.621Z,94827.09
2022-11-19T19:22:57.053Z,94831.47
2022-11-19T19:26:05.923Z,94829.59
2022-11-19T19:32:47.560Z,94831.13
2022-11-19T19:36:06.549Z,94827.91
2022-11-19T19:43:17.436Z,94825.56
2022-11-19T19:46:53.777Z,94825.03
2022-11-19T19:49:51.405Z,94823.13
2022-11-19T19:53:13.745Z,94825.88
2022-11-19T19:56:46.514Z,94829.31
2022-11-19T19:59:57.041Z,94826.69
2022-11-19T20:03:01.914Z,94836.25
2022-11-19T20:06:08.201Z,94833.94
2022-11-19T20:09:13.218Z,94841.53
2022-11-19T20:12:32.065Z,94852.22
2022-11-19T20:15:35.352Z,94859.19
2022-11-19T20:18:40.846Z,94865.38
2022-11-19T20:21:55.424Z,94859.56
2022-11-19T20:25:03.787Z,94844.72
2022-11-19T20:28:12.698Z,94842.03
2022-11-19T20:31:22.161Z,94836.44
2022-11-19T20:34:32.443Z,94836.69
2022-11-19T20:37:35.762Z,94838.19
2022-11-19T20:40:42.028Z,94835.22
2022-11-19T20:43:55.659Z,94826.16
2022-11-19T20:47:01.956Z,94826.00
2022-11-19T20:50:17.618Z,94829.75
2022-11-19T20:53:27.020Z,94828.25
2022-11-19T20:56:33.985Z,94832.16
2022-11-19T20:59:38.158Z,94834.03
2022-11-19T21:02:42.809Z,94827.28
2022-11-19T21:05:48.267Z,94823.47
2022-11-19T21:08:51.320Z,94833.19
2022-11-19T21:11:53.823Z,94823.63
2022-11-19T21:14:59.296Z,94828.25
2022-11-19T21:18:01.878Z,94835.78
2022-11-19T21:21:05.153Z,94833.75
2022-11-19T21:24:08.325Z,94833.41
2022-11-19T21:27:10.891Z,94835.03
2022-11-19T21:30:14.852Z,94828.25
2022-11-19T21:33:17.245Z,94835.16
2022-11-19T21:36:19.158Z,94840.84
2022-11-19T21:39:21.775Z,94844.72
2022-11-19T21:42:25.243Z,94832.84
2022-11-19T21:45:28.550Z,94840.72
2022-11-19T21:48:30.584Z,94850.13
2022-11-19T21:51:32.718Z,94849.69
2022-11-19T21:54:34.652Z,94858.84
2022-11-19T21:57:36.581Z,94845.19
2022-11-19T22:00:41.144Z,94857.78
2022-11-19T22:03:43.154Z,94854.34
2022-11-19T22:06:45.181Z,94853.50
2022-11-19T22:09:47.116Z,94859.25
2022-11-19T22:12:49.018Z,94863.69
2022-11-19T22:15:59.121Z,94861.34
2022-11-19T22:19:01.152Z,94855.19
2022-11-19T22:22:03.327Z,94848.97
2022-11-19T22:28:25.092Z,94863.88
2022-11-19T22:31:28.436Z,94867.47
2022-11-19T22:34:32.025Z,94861.63
2022-11-19T22:37:33.997Z,94866.63
2022-11-19T22:40:35.937Z,94861.72
2022-11-19T22:43:42.410Z,94859.91
2022-11-19T22:46:45.832Z,94863.63
2022-11-19T22:49:51.963Z,94856.44
2022-11-19T22:52:55.765Z,94866.00
2022-11-19T22:56:02.974Z,94863.25
2022-11-19T22:59:04.875Z,94862.06
2022-11-19T23:02:08.216Z,94869.78
2022-11-19T23:05:20.421Z,94866.69
2022-11-19T23:08:27.145Z,94859.09
2022-11-19T23:11:41.559Z,94856.88
2022-11-19T23:14:49.023Z,94859.72
2022-11-19T23:17:56.456Z,94857.66
2022-11-19T23:21:04.549Z,94858.97
2022-11-19T23:24:24.935Z,94858.19
2022-11-19T23:27:26.940Z,94859.31
2022-11-19T23:30:28.839Z,94855.09
2022-11-19T23:33:39.558Z,94853.56
2022-11-19T23:36:41.723Z,94853.88
2022-11-19T23:39:46.130Z,94846.44
2022-11-19T23:42:51.883Z,94842.66
2022-11-19T23:45:58.609Z,94837.59
2022-11-19T23:49:12.902Z,94849.94
2022-11-19T23:52:17.096Z,94843.31
2022-11-19T23:55:28.823Z,94839.41
2022-11-19T23:58:31.254Z,94835.63
